sensor_id;sensor_type;location;lat;lon;timestamp;P1;durP1;ratioP1;P2;durP2;ratioP2
22929;SDS011;11630;42.660;23.292;2022-10-16T00:00:24;9.70;;;7.90;;
22929;SDS011;11630;42.660;23.292;2022-10-16T00:02:55;13.70;;;8.07;;
22929;SDS011;11630;42.660;23.292;2022-10-16T00:05:27;12.10;;;7.37;;
22929;SDS011;11630;42.660;23.292;2022-10-16T00:07:57;13.03;;;7.73;;
22929;SDS011;11630;42.660;23.292;2022-10-16T00:10:27;16.43;;;10.30;;
22929;SDS011;11630;42.660;23.292;2022-10-16T00:12:58;11.67;;;8.73;;
22929;SDS011;11630;42.660;23.292;2022-10-16T00:15:28;9.17;;;7.73;;
22929;SDS011;11630;42.660;23.292;2022-10-16T00:17:59;12.13;;;8.77;;
22929;SDS011;11630;42.660;23.292;2022-10-16T00:20:33;11.17;;;8.10;;
22929;SDS011;11630;42.660;23.292;2022-10-16T00:23:03;8.83;;;7.90;;
22929;SDS011;11630;42.660;23.292;2022-10-16T00:25:34;11.90;;;8.33;;
22929;SDS011;11630;42.660;23.292;2022-10-16T00:28:05;10.03;;;7.00;;
22929;SDS011;11630;42.660;23.292;2022-10-16T00:30:37;10.27;;;7.53;;
22929;SDS011;11630;42.660;23.292;2022-10-16T00:33:07;12.13;;;7.57;;
22929;SDS011;11630;42.660;23.292;2022-10-16T00:35:39;10.10;;;7.57;;
22929;SDS011;11630;42.660;23.292;2022-10-16T00:38:09;8.13;;;7.33;;
22929;SDS011;11630;42.660;23.292;2022-10-16T00:40:39;13.73;;;8.63;;
22929;SDS011;11630;42.660;23.292;2022-10-16T00:46:02;9.70;;;7.70;;
22929;SDS011;11630;42.660;23.292;2022-10-16T00:48:35;10.73;;;8.53;;
22929;SDS011;11630;42.660;23.292;2022-10-16T00:51:06;8.53;;;7.33;;
22929;SDS011;11630;42.660;23.292;2022-10-16T00:53:38;12.43;;;7.97;;
22929;SDS011;11630;42.660;23.292;2022-10-16T00:56:09;11.50;;;7.80;;
22929;SDS011;11630;42.660;23.292;2022-10-16T00:58:40;11.03;;;7.33;;
22929;SDS011;11630;42.660;23.292;2022-10-16T01:01:11;11.27;;;7.77;;
22929;SDS011;11630;42.660;23.292;2022-10-16T01:03:41;11.10;;;8.93;;
22929;SDS011;11630;42.660;23.292;2022-10-16T01:08:49;9.87;;;8.83;;
22929;SDS011;11630;42.660;23.292;2022-10-16T01:11:22;11.23;;;9.23;;
22929;SDS011;11630;42.660;23.292;2022-10-16T01:13:55;12.50;;;10.33;;
22929;SDS011;11630;42.660;23.292;2022-10-16T01:16:29;13.73;;;9.90;;
22929;SDS011;11630;42.660;23.292;2022-10-16T01:19:02;11.40;;;8.70;;
22929;SDS011;11630;42.660;23.292;2022-10-16T01:21:44;9.83;;;8.60;;
22929;SDS011;11630;42.660;23.292;2022-10-16T01:32:25;10.50;;;8.07;;
22929;SDS011;11630;42.660;23.292;2022-10-16T01:35:05;15.73;;;7.60;;
22929;SDS011;11630;42.660;23.292;2022-10-16T01:38:23;14.00;;;7.07;;
22929;SDS011;11630;42.660;23.292;2022-10-16T01:40:28;12.53;;;8.20;;
22929;SDS011;11630;42.660;23.292;2022-10-16T01:43:02;11.07;;;7.60;;
22929;SDS011;11630;42.660;23.292;2022-10-16T01:45:32;12.70;;;8.90;;
22929;SDS011;11630;42.660;23.292;2022-10-16T01:48:05;9.77;;;7.67;;
22929;SDS011;11630;42.660;23.292;2022-10-16T01:50:37;11.03;;;8.37;;
22929;SDS011;11630;42.660;23.292;2022-10-16T01:53:09;11.97;;;8.47;;
22929;SDS011;11630;42.660;23.292;2022-10-16T01:55:44;13.73;;;9.03;;
22929;SDS011;11630;42.660;23.292;2022-10-16T01:58:15;13.00;;;8.63;;
22929;SDS011;11630;42.660;23.292;2022-10-16T02:00:45;10.17;;;8.10;;
22929;SDS011;11630;42.660;23.292;2022-10-16T02:03:18;9.87;;;8.20;;
22929;SDS011;11630;42.660;23.292;2022-10-16T02:05:53;9.60;;;7.67;;
22929;SDS011;11630;42.660;23.292;2022-10-16T02:08:27;9.30;;;7.70;;
22929;SDS011;11630;42.660;23.292;2022-10-16T02:10:59;9.87;;;7.13;;
22929;SDS011;11630;42.660;23.292;2022-10-16T02:13:35;11.03;;;7.53;;
22929;SDS011;11630;42.660;23.292;2022-10-16T02:16:09;11.20;;;8.07;;
22929;SDS011;11630;42.660;23.292;2022-10-16T02:18:41;11.43;;;8.10;;
22929;SDS011;11630;42.660;23.292;2022-10-16T02:23:51;17.67;;;8.73;;
22929;SDS011;11630;42.660;23.292;2022-10-16T02:27:12;11.17;;;7.87;;
22929;SDS011;11630;42.660;23.292;2022-10-16T02:29:10;11.27;;;8.00;;
22929;SDS011;11630;42.660;23.292;2022-10-16T02:31:41;10.20;;;7.93;;
22929;SDS011;11630;42.660;23.292;2022-10-16T02:34:13;9.83;;;7.30;;
22929;SDS011;11630;42.660;23.292;2022-10-16T02:36:45;11.33;;;7.77;;
22929;SDS011;11630;42.660;23.292;2022-10-16T02:39:19;12.10;;;7.67;;
22929;SDS011;11630;42.660;23.292;2022-10-16T02:41:56;10.97;;;6.90;;
22929;SDS011;11630;42.660;23.292;2022-10-16T02:44:26;8.70;;;6.07;;
22929;SDS011;11630;42.660;23.292;2022-10-16T02:46:57;7.33;;;6.33;;
22929;SDS011;11630;42.660;23.292;2022-10-16T02:49:28;10.53;;;6.80;;
22929;SDS011;11630;42.660;23.292;2022-10-16T02:51:58;13.33;;;7.13;;
22929;SDS011;11630;42.660;23.292;2022-10-16T02:54:29;9.27;;;7.23;;
22929;SDS011;11630;42.660;23.292;2022-10-16T02:57:00;10.53;;;6.53;;
22929;SDS011;11630;42.660;23.292;2022-10-16T02:59:32;11.57;;;6.70;;
22929;SDS011;11630;42.660;23.292;2022-10-16T03:02:03;9.00;;;7.27;;
22929;SDS011;11630;42.660;23.292;2022-10-16T03:04:33;9.80;;;6.70;;
22929;SDS011;11630;42.660;23.292;2022-10-16T03:07:04;10.20;;;6.63;;
22929;SDS011;11630;42.660;23.292;2022-10-16T03:09:35;9.83;;;7.30;;
22929;SDS011;11630;42.660;23.292;2022-10-16T03:12:06;7.57;;;6.37;;
22929;SDS011;11630;42.660;23.292;2022-10-16T03:14:38;10.33;;;7.40;;
22929;SDS011;11630;42.660;23.292;2022-10-16T03:17:09;7.97;;;6.90;;
22929;SDS011;11630;42.660;23.292;2022-10-16T03:19:40;9.43;;;7.13;;
22929;SDS011;11630;42.660;23.292;2022-10-16T03:22:11;7.93;;;7.13;;
22929;SDS011;11630;42.660;23.292;2022-10-16T03:24:42;9.40;;;6.57;;
22929;SDS011;11630;42.660;23.292;2022-10-16T03:27:13;11.97;;;6.90;;
22929;SDS011;11630;42.660;23.292;2022-10-16T03:29:44;9.53;;;7.40;;
22929;SDS011;11630;42.660;23.292;2022-10-16T03:32:15;13.57;;;9.63;;
22929;SDS011;11630;42.660;23.292;2022-10-16T03:34:46;16.60;;;7.37;;
22929;SDS011;11630;42.660;23.292;2022-10-16T03:37:17;9.80;;;7.73;;
22929;SDS011;11630;42.660;23.292;2022-10-16T03:39:48;8.83;;;7.23;;
22929;SDS011;11630;42.660;23.292;2022-10-16T03:42:18;10.37;;;8.03;;
22929;SDS011;11630;42.660;23.292;2022-10-16T03:44:49;11.33;;;8.70;;
22929;SDS011;11630;42.660;23.292;2022-10-16T03:47:20;11.20;;;8.63;;
22929;SDS011;11630;42.660;23.292;2022-10-16T03:49:50;14.57;;;9.00;;
22929;SDS011;11630;42.660;23.292;2022-10-16T03:52:22;13.63;;;9.30;;
22929;SDS011;11630;42.660;23.292;2022-10-16T03:54:53;14.37;;;9.50;;
22929;SDS011;11630;42.660;23.292;2022-10-16T03:57:24;12.40;;;9.83;;
22929;SDS011;11630;42.660;23.292;2022-10-16T03:59:54;10.90;;;9.50;;
22929;SDS011;11630;42.660;23.292;2022-10-16T04:02:24;10.67;;;9.57;;
22929;SDS011;11630;42.660;23.292;2022-10-16T04:04:55;13.73;;;10.37;;
22929;SDS011;11630;42.660;23.292;2022-10-16T04:07:26;15.47;;;8.63;;
22929;SDS011;11630;42.660;23.292;2022-10-16T04:09:57;14.73;;;8.50;;
22929;SDS011;11630;42.660;23.292;2022-10-16T04:12:28;15.03;;;9.00;;
22929;SDS011;11630;42.660;23.292;2022-10-16T04:14:59;13.90;;;9.57;;
22929;SDS011;11630;42.660;23.292;2022-10-16T04:17:30;11.47;;;8.27;;
22929;SDS011;11630;42.660;23.292;2022-10-16T04:20:03;13.67;;;9.10;;
22929;SDS011;11630;42.660;23.292;2022-10-16T04:22:35;16.93;;;8.60;;
22929;SDS011;11630;42.660;23.292;2022-10-16T04:25:06;12.50;;;9.57;;
22929;SDS011;11630;42.660;23.292;2022-10-16T04:27:38;17.37;;;10.00;;
22929;SDS011;11630;42.660;23.292;2022-10-16T04:30:09;12.73;;;9.67;;
22929;SDS011;11630;42.660;23.292;2022-10-16T04:32:43;10.07;;;8.87;;
22929;SDS011;11630;42.660;23.292;2022-10-16T04:35:17;12.70;;;9.00;;
22929;SDS011;11630;42.660;23.292;2022-10-16T04:37:48;11.70;;;9.50;;
22929;SDS011;11630;42.660;23.292;2022-10-16T04:40:19;12.03;;;9.20;;
22929;SDS011;11630;42.660;23.292;2022-10-16T04:42:50;10.17;;;8.33;;
22929;SDS011;11630;42.660;23.292;2022-10-16T04:45:21;14.57;;;8.97;;
22929;SDS011;11630;42.660;23.292;2022-10-16T04:47:52;13.97;;;8.77;;
22929;SDS011;11630;42.660;23.292;2022-10-16T04:50:23;13.97;;;8.37;;
22929;SDS011;11630;42.660;23.292;2022-10-16T04:52:54;10.73;;;8.03;;
22929;SDS011;11630;42.660;23.292;2022-10-16T04:55:25;10.97;;;7.83;;
22929;SDS011;11630;42.660;23.292;2022-10-16T04:57:55;12.33;;;8.47;;
22929;SDS011;11630;42.660;23.292;2022-10-16T05:00:25;11.70;;;8.53;;
22929;SDS011;11630;42.660;23.292;2022-10-16T05:02:56;13.57;;;8.97;;
22929;SDS011;11630;42.660;23.292;2022-10-16T05:05:27;12.60;;;9.27;;
22929;SDS011;11630;42.660;23.292;2022-10-16T05:08:00;17.13;;;9.43;;
22929;SDS011;11630;42.660;23.292;2022-10-16T05:10:31;12.50;;;9.40;;
22929;SDS011;11630;42.660;23.292;2022-10-16T05:13:01;12.20;;;8.90;;
22929;SDS011;11630;42.660;23.292;2022-10-16T05:15:32;10.77;;;8.30;;
22929;SDS011;11630;42.660;23.292;2022-10-16T05:18:03;12.53;;;8.47;;
22929;SDS011;11630;42.660;23.292;2022-10-16T05:20:34;16.90;;;8.43;;
22929;SDS011;11630;42.660;23.292;2022-10-16T05:23:05;13.13;;;10.13;;
22929;SDS011;11630;42.660;23.292;2022-10-16T05:25:39;15.83;;;9.60;;
22929;SDS011;11630;42.660;23.292;2022-10-16T05:28:10;16.80;;;10.20;;
22929;SDS011;11630;42.660;23.292;2022-10-16T05:30:41;14.23;;;9.80;;
22929;SDS011;11630;42.660;23.292;2022-10-16T05:33:12;14.90;;;10.07;;
22929;SDS011;11630;42.660;23.292;2022-10-16T05:35:42;14.30;;;9.97;;
22929;SDS011;11630;42.660;23.292;2022-10-16T05:38:14;14.10;;;10.33;;
22929;SDS011;11630;42.660;23.292;2022-10-16T05:40:51;16.63;;;10.43;;
22929;SDS011;11630;42.660;23.292;2022-10-16T05:43:22;25.17;;;12.07;;
22929;SDS011;11630;42.660;23.292;2022-10-16T05:45:54;15.60;;;10.50;;
22929;SDS011;11630;42.660;23.292;2022-10-16T05:48:25;19.93;;;11.03;;
22929;SDS011;11630;42.660;23.292;2022-10-16T05:51:01;15.27;;;10.40;;
22929;SDS011;11630;42.660;23.292;2022-10-16T05:53:33;13.03;;;10.13;;
22929;SDS011;11630;42.660;23.292;2022-10-16T05:56:05;15.73;;;10.07;;
22929;SDS011;11630;42.660;23.292;2022-10-16T05:58:37;22.70;;;12.13;;
22929;SDS011;11630;42.660;23.292;2022-10-16T06:01:12;17.87;;;11.43;;
22929;SDS011;11630;42.660;23.292;2022-10-16T06:03:43;18.80;;;12.53;;
22929;SDS011;11630;42.660;23.292;2022-10-16T06:06:15;14.67;;;11.43;;
22929;SDS011;11630;42.660;23.292;2022-10-16T06:08:45;14.97;;;11.47;;
22929;SDS011;11630;42.660;23.292;2022-10-16T06:11:18;16.77;;;12.00;;
22929;SDS011;11630;42.660;23.292;2022-10-16T06:13:50;13.77;;;11.63;;
22929;SDS011;11630;42.660;23.292;2022-10-16T06:16:22;13.73;;;10.90;;
22929;SDS011;11630;42.660;23.292;2022-10-16T06:18:56;16.67;;;11.77;;
22929;SDS011;11630;42.660;23.292;2022-10-16T06:21:27;17.07;;;12.83;;
22929;SDS011;11630;42.660;23.292;2022-10-16T06:23:58;16.30;;;11.97;;
22929;SDS011;11630;42.660;23.292;2022-10-16T06:26:29;14.40;;;11.13;;
22929;SDS011;11630;42.660;23.292;2022-10-16T06:29:00;14.27;;;11.50;;
22929;SDS011;11630;42.660;23.292;2022-10-16T06:31:30;19.37;;;11.13;;
22929;SDS011;11630;42.660;23.292;2022-10-16T06:34:01;14.67;;;10.40;;
22929;SDS011;11630;42.660;23.292;2022-10-16T06:36:34;17.75;;;12.13;;
22929;SDS011;11630;42.660;23.292;2022-10-16T06:39:04;14.03;;;11.30;;
22929;SDS011;11630;42.660;23.292;2022-10-16T06:41:35;23.30;;;12.00;;
22929;SDS011;11630;42.660;23.292;2022-10-16T06:44:05;14.03;;;10.87;;
22929;SDS011;11630;42.660;23.292;2022-10-16T06:46:38;21.07;;;12.43;;
22929;SDS011;11630;42.660;23.292;2022-10-16T06:49:10;13.17;;;11.17;;
22929;SDS011;11630;42.660;23.292;2022-10-16T06:51:41;16.90;;;10.77;;
22929;SDS011;11630;42.660;23.292;2022-10-16T06:54:12;15.00;;;11.33;;
22929;SDS011;11630;42.660;23.292;2022-10-16T06:56:43;13.60;;;11.13;;
22929;SDS011;11630;42.660;23.292;2022-10-16T06:59:15;19.70;;;11.53;;
22929;SDS011;11630;42.660;23.292;2022-10-16T07:01:46;15.23;;;11.17;;
22929;SDS011;11630;42.660;23.292;2022-10-16T07:04:17;17.77;;;10.53;;
22929;SDS011;11630;42.660;23.292;2022-10-16T07:06:47;12.47;;;10.20;;
22929;SDS011;11630;42.660;23.292;2022-10-16T07:09:18;16.37;;;9.93;;
22929;SDS011;11630;42.660;23.292;2022-10-16T07:11:50;11.77;;;10.10;;
22929;SDS011;11630;42.660;23.292;2022-10-16T07:14:20;20.97;;;9.43;;
22929;SDS011;11630;42.660;23.292;2022-10-16T07:16:51;14.93;;;8.53;;
22929;SDS011;11630;42.660;23.292;2022-10-16T07:19:22;10.97;;;8.50;;
22929;SDS011;11630;42.660;23.292;2022-10-16T07:21:53;20.67;;;9.70;;
22929;SDS011;11630;42.660;23.292;2022-10-16T07:24:24;12.30;;;8.30;;
22929;SDS011;11630;42.660;23.292;2022-10-16T07:26:54;14.63;;;8.20;;
22929;SDS011;11630;42.660;23.292;2022-10-16T07:29:28;14.10;;;11.43;;
22929;SDS011;11630;42.660;23.292;2022-10-16T07:31:59;8.77;;;7.87;;
22929;SDS011;11630;42.660;23.292;2022-10-16T07:34:30;13.77;;;8.00;;
22929;SDS011;11630;42.660;23.292;2022-10-16T07:37:01;11.20;;;8.37;;
22929;SDS011;11630;42.660;23.292;2022-10-16T07:39:31;8.57;;;7.63;;
22929;SDS011;11630;42.660;23.292;2022-10-16T07:42:02;13.50;;;9.13;;
22929;SDS011;11630;42.660;23.292;2022-10-16T07:44:33;9.30;;;7.30;;
22929;SDS011;11630;42.660;23.292;2022-10-16T07:47:04;11.47;;;9.70;;
22929;SDS011;11630;42.660;23.292;2022-10-16T07:49:35;8.70;;;7.87;;
22929;SDS011;11630;42.660;23.292;2022-10-16T07:52:06;11.47;;;8.30;;
22929;SDS011;11630;42.660;23.292;2022-10-16T07:54:36;10.00;;;7.77;;
22929;SDS011;11630;42.660;23.292;2022-10-16T07:57:07;9.47;;;7.50;;
22929;SDS011;11630;42.660;23.292;2022-10-16T07:59:38;9.90;;;7.37;;
22929;SDS011;11630;42.660;23.292;2022-10-16T08:02:09;19.27;;;8.70;;
22929;SDS011;11630;42.660;23.292;2022-10-16T08:04:40;10.80;;;8.70;;
22929;SDS011;11630;42.660;23.292;2022-10-16T08:07:12;9.30;;;7.93;;
22929;SDS011;11630;42.660;23.292;2022-10-16T08:09:42;9.70;;;8.70;;
22929;SDS011;11630;42.660;23.292;2022-10-16T08:12:13;11.07;;;7.80;;
22929;SDS011;11630;42.660;23.292;2022-10-16T08:14:44;12.13;;;8.27;;
22929;SDS011;11630;42.660;23.292;2022-10-16T08:17:15;12.50;;;8.27;;
22929;SDS011;11630;42.660;23.292;2022-10-16T08:19:46;9.90;;;7.57;;
22929;SDS011;11630;42.660;23.292;2022-10-16T08:22:16;10.30;;;7.77;;
22929;SDS011;11630;42.660;23.292;2022-10-16T08:24:47;10.23;;;6.53;;
22929;SDS011;11630;42.660;23.292;2022-10-16T08:27:18;13.07;;;7.40;;
22929;SDS011;11630;42.660;23.292;2022-10-16T08:29:49;8.63;;;6.97;;
22929;SDS011;11630;42.660;23.292;2022-10-16T08:32:19;8.37;;;6.67;;
22929;SDS011;11630;42.660;23.292;2022-10-16T08:34:50;15.20;;;7.67;;
22929;SDS011;11630;42.660;23.292;2022-10-16T08:37:21;17.53;;;8.30;;
22929;SDS011;11630;42.660;23.292;2022-10-16T08:39:52;11.60;;;7.70;;
22929;SDS011;11630;42.660;23.292;2022-10-16T08:50:36;7.27;;;6.10;;
22929;SDS011;11630;42.660;23.292;2022-10-16T08:53:11;14.13;;;6.67;;
22929;SDS011;11630;42.660;23.292;2022-10-16T08:55:45;7.63;;;6.93;;
22929;SDS011;11630;42.660;23.292;2022-10-16T08:58:17;7.20;;;4.93;;
22929;SDS011;11630;42.660;23.292;2022-10-16T09:00:55;7.83;;;5.17;;
22929;SDS011;11630;42.660;23.292;2022-10-16T09:03:30;6.30;;;4.60;;
22929;SDS011;11630;42.660;23.292;2022-10-16T09:11:34;8.20;;;4.80;;
22929;SDS011;11630;42.660;23.292;2022-10-16T09:17:00;9.10;;;4.87;;
22929;SDS011;11630;42.660;23.292;2022-10-16T09:19:31;6.40;;;4.77;;
22929;SDS011;11630;42.660;23.292;2022-10-16T09:22:14;6.47;;;4.47;;
22929;SDS011;11630;42.660;23.292;2022-10-16T09:24:40;8.57;;;4.23;;
22929;SDS011;11630;42.660;23.292;2022-10-16T09:27:12;6.47;;;4.27;;
22929;SDS011;11630;42.660;23.292;2022-10-16T09:29:44;8.57;;;4.27;;
22929;SDS011;11630;42.660;23.292;2022-10-16T09:32:19;8.73;;;3.93;;
22929;SDS011;11630;42.660;23.292;2022-10-16T09:34:52;6.67;;;3.97;;
22929;SDS011;11630;42.660;23.292;2022-10-16T09:37:22;15.53;;;4.93;;
22929;SDS011;11630;42.660;23.292;2022-10-16T09:39:54;6.87;;;3.97;;
22929;SDS011;11630;42.660;23.292;2022-10-16T09:42:27;9.63;;;4.33;;
22929;SDS011;11630;42.660;23.292;2022-10-16T09:44:59;8.43;;;3.83;;
22929;SDS011;11630;42.660;23.292;2022-10-16T09:47:30;9.17;;;4.00;;
22929;SDS011;11630;42.660;23.292;2022-10-16T09:50:05;5.97;;;3.90;;
22929;SDS011;11630;42.660;23.292;2022-10-16T09:52:35;8.43;;;4.37;;
22929;SDS011;11630;42.660;23.292;2022-10-16T09:55:15;4.30;;;3.27;;
22929;SDS011;11630;42.660;23.292;2022-10-16T09:57:50;5.60;;;3.20;;
22929;SDS011;11630;42.660;23.292;2022-10-16T10:00:24;5.77;;;3.73;;
22929;SDS011;11630;42.660;23.292;2022-10-16T10:02:55;7.00;;;4.70;;
22929;SDS011;11630;42.660;23.292;2022-10-16T10:05:27;8.03;;;4.03;;
22929;SDS011;11630;42.660;23.292;2022-10-16T10:08:02;4.27;;;3.87;;
22929;SDS011;11630;42.660;23.292;2022-10-16T10:10:32;5.00;;;3.33;;
22929;SDS011;11630;42.660;23.292;2022-10-16T10:13:04;5.03;;;3.40;;
22929;SDS011;11630;42.660;23.292;2022-10-16T10:15:35;3.93;;;3.53;;
22929;SDS011;11630;42.660;23.292;2022-10-16T10:18:16;3.40;;;3.00;;
22929;SDS011;11630;42.660;23.292;2022-10-16T10:20:58;7.03;;;4.00;;
22929;SDS011;11630;42.660;23.292;2022-10-16T10:23:31;4.07;;;3.43;;
22929;SDS011;11630;42.660;23.292;2022-10-16T10:26:06;5.13;;;3.20;;
22929;SDS011;11630;42.660;23.292;2022-10-16T10:31:26;11.33;;;3.50;;
22929;SDS011;11630;42.660;23.292;2022-10-16T10:36:42;9.53;;;3.43;;
22929;SDS011;11630;42.660;23.292;2022-10-16T10:39:23;4.93;;;3.20;;
22929;SDS011;11630;42.660;23.292;2022-10-16T10:41:59;6.90;;;3.13;;
22929;SDS011;11630;42.660;23.292;2022-10-16T10:50:26;5.10;;;3.00;;
22929;SDS011;11630;42.660;23.292;2022-10-16T10:53:24;3.87;;;3.00;;
22929;SDS011;11630;42.660;23.292;2022-10-16T10:56:17;3.80;;;3.27;;
22929;SDS011;11630;42.660;23.292;2022-10-16T10:59:02;8.00;;;3.67;;
22929;SDS011;11630;42.660;23.292;2022-10-16T11:01:37;4.33;;;3.33;;
22929;SDS011;11630;42.660;23.292;2022-10-16T11:07:04;2.67;;;2.47;;
22929;SDS011;11630;42.660;23.292;2022-10-16T11:09:45;4.60;;;2.87;;
22929;SDS011;11630;42.660;23.292;2022-10-16T11:12:15;5.03;;;3.27;;
22929;SDS011;11630;42.660;23.292;2022-10-16T11:14:56;3.57;;;2.83;;
22929;SDS011;11630;42.660;23.292;2022-10-16T11:17:30;4.43;;;3.13;;
22929;SDS011;11630;42.660;23.292;2022-10-16T11:20:05;4.23;;;2.53;;
22929;SDS011;11630;42.660;23.292;2022-10-16T11:22:48;4.20;;;3.20;;
22929;SDS011;11630;42.660;23.292;2022-10-16T11:25:37;9.50;;;3.53;;
22929;SDS011;11630;42.660;23.292;2022-10-16T11:28:14;3.83;;;3.17;;
22929;SDS011;11630;42.660;23.292;2022-10-16T11:30:48;3.30;;;2.67;;
22929;SDS011;11630;42.660;23.292;2022-10-16T11:33:34;4.53;;;2.77;;
22929;SDS011;11630;42.660;23.292;2022-10-16T11:36:10;8.17;;;2.63;;
22929;SDS011;11630;42.660;23.292;2022-10-16T11:41:29;3.70;;;2.50;;
22929;SDS011;11630;42.660;23.292;2022-10-16T11:46:46;7.53;;;2.27;;
22929;SDS011;11630;42.660;23.292;2022-10-16T11:49:18;2.67;;;2.20;;
22929;SDS011;11630;42.660;23.292;2022-10-16T11:51:56;4.60;;;2.20;;
22929;SDS011;11630;42.660;23.292;2022-10-16T11:57:39;7.03;;;2.43;;
22929;SDS011;11630;42.660;23.292;2022-10-16T12:05:52;2.20;;;1.80;;
22929;SDS011;11630;42.660;23.292;2022-10-16T12:08:21;3.60;;;2.10;;
22929;SDS011;11630;42.660;23.292;2022-10-16T12:10:52;3.70;;;2.50;;
22929;SDS011;11630;42.660;23.292;2022-10-16T12:13:36;8.23;;;3.67;;
22929;SDS011;11630;42.660;23.292;2022-10-16T12:18:44;7.80;;;2.53;;
22929;SDS011;11630;42.660;23.292;2022-10-16T12:21:16;5.07;;;2.93;;
22929;SDS011;11630;42.660;23.292;2022-10-16T12:23:50;3.07;;;2.03;;
22929;SDS011;11630;42.660;23.292;2022-10-16T12:26:25;4.17;;;2.40;;
22929;SDS011;11630;42.660;23.292;2022-10-16T12:31:52;4.30;;;2.63;;
22929;SDS011;11630;42.660;23.292;2022-10-16T12:34:26;5.37;;;2.13;;
22929;SDS011;11630;42.660;23.292;2022-10-16T12:37:07;11.13;;;3.13;;
22929;SDS011;11630;42.660;23.292;2022-10-16T12:39:39;3.37;;;2.77;;
22929;SDS011;11630;42.660;23.292;2022-10-16T12:44:57;2.83;;;2.53;;
22929;SDS011;11630;42.660;23.292;2022-10-16T12:50:22;5.43;;;2.77;;
22929;SDS011;11630;42.660;23.292;2022-10-16T12:52:37;2.57;;;2.37;;
22929;SDS011;11630;42.660;23.292;2022-10-16T12:55:16;5.37;;;2.77;;
22929;SDS011;11630;42.660;23.292;2022-10-16T13:00:45;4.57;;;1.87;;
22929;SDS011;11630;42.660;23.292;2022-10-16T13:03:48;6.13;;;3.23;;
22929;SDS011;11630;42.660;23.292;2022-10-16T13:09:13;6.07;;;2.70;;
22929;SDS011;11630;42.660;23.292;2022-10-16T13:14:48;3.40;;;2.63;;
22929;SDS011;11630;42.660;23.292;2022-10-16T13:17:19;3.63;;;2.83;;
22929;SDS011;11630;42.660;23.292;2022-10-16T13:20:09;3.60;;;2.60;;
22929;SDS011;11630;42.660;23.292;2022-10-16T13:28:27;16.80;;;3.73;;
22929;SDS011;11630;42.660;23.292;2022-10-16T13:30:58;6.73;;;3.40;;
22929;SDS011;11630;42.660;23.292;2022-10-16T13:33:34;7.77;;;4.50;;
22929;SDS011;11630;42.660;23.292;2022-10-16T13:36:04;3.03;;;2.57;;
22929;SDS011;11630;42.660;23.292;2022-10-16T13:38:36;4.83;;;3.73;;
22929;SDS011;11630;42.660;23.292;2022-10-16T13:41:14;8.30;;;3.10;;
22929;SDS011;11630;42.660;23.292;2022-10-16T13:43:46;6.67;;;3.30;;
22929;SDS011;11630;42.660;23.292;2022-10-16T13:46:20;4.10;;;2.87;;
22929;SDS011;11630;42.660;23.292;2022-10-16T13:49:01;9.93;;;3.60;;
22929;SDS011;11630;42.660;23.292;2022-10-16T13:51:32;10.87;;;2.47;;
22929;SDS011;11630;42.660;23.292;2022-10-16T13:54:03;5.70;;;2.60;;
22929;SDS011;11630;42.660;23.292;2022-10-16T13:56:35;4.03;;;2.87;;
22929;SDS011;11630;42.660;23.292;2022-10-16T13:59:22;3.90;;;2.87;;
22929;SDS011;11630;42.660;23.292;2022-10-16T14:01:45;4.50;;;3.30;;
22929;SDS011;11630;42.660;23.292;2022-10-16T14:04:16;5.40;;;4.00;;
22929;SDS011;11630;42.660;23.292;2022-10-16T14:06:46;8.70;;;4.40;;
22929;SDS011;11630;42.660;23.292;2022-10-16T14:09:22;3.97;;;3.40;;
22929;SDS011;11630;42.660;23.292;2022-10-16T14:12:01;5.10;;;2.93;;
22929;SDS011;11630;42.660;23.292;2022-10-16T14:14:39;9.47;;;4.20;;
22929;SDS011;11630;42.660;23.292;2022-10-16T14:17:22;7.37;;;3.13;;
22929;SDS011;11630;42.660;23.292;2022-10-16T14:19:53;9.67;;;3.50;;
22929;SDS011;11630;42.660;23.292;2022-10-16T14:25:01;14.67;;;3.33;;
22929;SDS011;11630;42.660;23.292;2022-10-16T14:27:34;5.43;;;3.13;;
22929;SDS011;11630;42.660;23.292;2022-10-16T14:30:17;6.87;;;4.53;;
22929;SDS011;11630;42.660;23.292;2022-10-16T14:32:53;7.67;;;4.13;;
22929;SDS011;11630;42.660;23.292;2022-10-16T14:35:30;6.93;;;4.43;;
22929;SDS011;11630;42.660;23.292;2022-10-16T14:38:04;4.73;;;3.33;;
22929;SDS011;11630;42.660;23.292;2022-10-16T14:40:36;4.63;;;2.80;;
22929;SDS011;11630;42.660;23.292;2022-10-16T14:43:14;10.83;;;3.30;;
22929;SDS011;11630;42.660;23.292;2022-10-16T14:45:40;5.27;;;2.60;;
22929;SDS011;11630;42.660;23.292;2022-10-16T14:48:14;5.10;;;3.10;;
22929;SDS011;11630;42.660;23.292;2022-10-16T14:50:46;3.87;;;2.90;;
22929;SDS011;11630;42.660;23.292;2022-10-16T14:53:17;18.00;;;3.77;;
22929;SDS011;11630;42.660;23.292;2022-10-16T14:55:48;5.27;;;3.20;;
22929;SDS011;11630;42.660;23.292;2022-10-16T14:58:20;2.67;;;2.47;;
22929;SDS011;11630;42.660;23.292;2022-10-16T15:00:55;2.70;;;2.50;;
22929;SDS011;11630;42.660;23.292;2022-10-16T15:03:26;5.03;;;2.83;;
22929;SDS011;11630;42.660;23.292;2022-10-16T15:05:56;3.53;;;2.87;;
22929;SDS011;11630;42.660;23.292;2022-10-16T15:08:27;3.27;;;2.97;;
22929;SDS011;11630;42.660;23.292;2022-10-16T15:10:58;3.47;;;3.07;;
22929;SDS011;11630;42.660;23.292;2022-10-16T15:13:29;6.77;;;3.40;;
22929;SDS011;11630;42.660;23.292;2022-10-16T15:16:01;3.90;;;2.70;;
22929;SDS011;11630;42.660;23.292;2022-10-16T15:18:32;5.63;;;3.23;;
22929;SDS011;11630;42.660;23.292;2022-10-16T15:21:03;8.50;;;3.20;;
22929;SDS011;11630;42.660;23.292;2022-10-16T15:23:33;6.53;;;3.30;;
22929;SDS011;11630;42.660;23.292;2022-10-16T15:26:03;15.83;;;3.53;;
22929;SDS011;11630;42.660;23.292;2022-10-16T15:28:34;9.83;;;3.30;;
22929;SDS011;11630;42.660;23.292;2022-10-16T15:31:05;6.63;;;3.60;;
22929;SDS011;11630;42.660;23.292;2022-10-16T15:33:35;10.67;;;4.33;;
22929;SDS011;11630;42.660;23.292;2022-10-16T15:36:06;4.40;;;4.00;;
22929;SDS011;11630;42.660;23.292;2022-10-16T15:38:36;5.47;;;4.40;;
22929;SDS011;11630;42.660;23.292;2022-10-16T15:41:07;15.53;;;5.13;;
22929;SDS011;11630;42.660;23.292;2022-10-16T15:43:38;8.77;;;4.83;;
22929;SDS011;11630;42.660;23.292;2022-10-16T15:46:10;19.70;;;4.93;;
22929;SDS011;11630;42.660;23.292;2022-10-16T15:48:48;6.03;;;4.07;;
22929;SDS011;11630;42.660;23.292;2022-10-16T15:51:20;7.10;;;4.10;;
22929;SDS011;11630;42.660;23.292;2022-10-16T15:53:51;19.10;;;5.67;;
22929;SDS011;11630;42.660;23.292;2022-10-16T15:56:22;8.53;;;5.00;;
22929;SDS011;11630;42.660;23.292;2022-10-16T15:58:56;8.17;;;5.30;;
22929;SDS011;11630;42.660;23.292;2022-10-16T16:01:27;9.40;;;4.87;;
22929;SDS011;11630;42.660;23.292;2022-10-16T16:03:58;13.60;;;5.40;;
22929;SDS011;11630;42.660;23.292;2022-10-16T16:06:29;12.00;;;6.10;;
22929;SDS011;11630;42.660;23.292;2022-10-16T16:08:59;13.53;;;5.77;;
22929;SDS011;11630;42.660;23.292;2022-10-16T16:11:31;18.00;;;7.37;;
22929;SDS011;11630;42.660;23.292;2022-10-16T16:14:01;20.73;;;5.73;;
22929;SDS011;11630;42.660;23.292;2022-10-16T16:16:33;11.03;;;6.33;;
22929;SDS011;11630;42.660;23.292;2022-10-16T16:19:03;15.40;;;6.43;;
22929;SDS011;11630;42.660;23.292;2022-10-16T16:21:34;23.53;;;6.97;;
22929;SDS011;11630;42.660;23.292;2022-10-16T16:24:04;26.70;;;7.70;;
22929;SDS011;11630;42.660;23.292;2022-10-16T16:26:35;29.03;;;7.83;;